Time;durP1;ratioP1;P1;durP2;ratioP2;P2;SDS_P1;SDS_P2;PMS_P1;PMS_P2;Temp;Humidity;BMP_temperature;BMP_pressure;BME280_temperature;BME280_humidity;BME280_pressure;Samples;Min_cycle;Max_cycle;Signal;HPM_P1;HPM_P2
2022/04/26 03:37:07;;;;;;;;;;;21.60;39.30;;;;;;482805;246;1236;-38
2022/04/26 03:39:08;;;;;;;;;;;21.60;39.20;;;;;;483145;244;2182;-38
2022/04/26 03:41:09;;;;;;;;;;;21.60;39.20;;;;;;482907;244;1180;-38
2022/04/26 03:43:11;;;;;;;;;;;21.60;39.20;;;;;;482910;244;1178;-38
2022/04/26 03:45:12;;;;;;;;;;;21.60;39.30;;;;;;482814;244;1082;-38
2022/04/26 03:47:14;;;;;;;;;;;21.60;39.30;;;;;;482700;244;1290;-39
2022/04/26 03:49:15;;;;;;;;;;;21.60;39.30;;;;;;482806;244;1043;-38
2022/04/26 03:51:16;;;;;;;;;;;21.60;39.30;;;;;;482770;244;1139;-38
2022/04/26 03:53:17;;;;;;;;;;;21.50;39.30;;;;;;482834;244;1137;-38
2022/04/26 03:55:20;;;;;;;;;;;21.60;39.30;;;;;;482762;244;1095;-38
2022/04/26 03:57:20;;;;;;;;;;;21.50;39.30;;;;;;482708;244;2538;-38
2022/04/26 03:59:21;;;;;;;;;;;21.50;39.40;;;;;;482706;244;2189;-38
2022/04/26 04:01:23;;;;;;;;;;;21.60;39.30;;;;;;483236;244;1264;-38
2022/04/26 04:03:24;;;;;;;;;;;21.50;39.30;;;;;;482819;244;1235;-38
2022/04/26 04:05:25;;;;;;;;;;;21.50;39.30;;;;;;483048;244;1168;-39
2022/04/26 04:07:27;;;;;;;;;;;21.50;39.30;;;;;;483066;244;1038;-39
2022/04/26 04:09:28;;;;;;;;;;;21.50;39.30;;;;;;483194;244;1102;-38
2022/04/26 04:11:29;;;;;;;;;;;21.50;39.30;;;;;;482677;244;1303;-38
2022/04/26 04:13:31;;;;;;;;;;;21.50;39.30;;;;;;482948;246;1075;-38
2022/04/26 04:15:32;;;;;;;;;;;21.60;39.30;;;;;;483034;244;1176;-38
2022/04/26 04:17:33;;;;;;;;;;;21.50;39.30;;;;;;483013;244;1247;-38
2022/04/26 04:19:35;;;;;;;;;;;21.50;39.30;;;;;;482752;244;2125;-39
2022/04/26 04:21:36;;;;;;;;;;;21.60;39.30;;;;;;483058;244;1090;-39
2022/04/26 04:23:38;;;;;;;;;;;21.50;39.30;;;;;;482645;244;1069;-38
2022/04/26 04:25:39;;;;;;;;;;;21.60;39.40;;;;;;482978;244;1200;-38
2022/04/26 04:27:41;;;;;;;;;;;21.60;39.30;;;;;;482887;244;1190;-39
2022/04/26 04:29:42;;;;;;;;;;;21.50;39.30;;;;;;482589;244;1027;-38
2022/04/26 04:31:43;;;;;;;;;;;21.50;39.30;;;;;;482813;244;1141;-38
2022/04/26 04:33:45;;;;;;;;;;;21.60;39.30;;;;;;483108;244;1276;-38
2022/04/26 04:35:46;;;;;;;;;;;21.60;39.30;;;;;;482684;244;1053;-38
2022/04/26 04:37:49;;;;;;;;;;;21.50;39.20;;;;;;482772;244;1060;-38
2022/04/26 04:39:49;;;;;;;;;;;21.60;39.30;;;;;;482664;247;2535;-39
2022/04/26 04:41:51;;;;;;;;;;;21.60;39.40;;;;;;482835;244;1300;-38
2022/04/26 04:43:52;;;;;;;;;;;21.50;39.40;;;;;;484733;245;1129;-38
2022/04/26 04:45:53;;;;;;;;;;;21.60;39.40;;;;;;484857;245;1059;-39
2022/04/26 04:47:54;;;;;;;;;;;21.50;39.30;;;;;;484593;245;1293;-39
2022/04/26 04:49:56;;;;;;;;;;;21.60;39.30;;;;;;484413;245;1230;-39
2022/04/26 04:51:57;;;;;;;;;;;21.60;39.40;;;;;;482791;244;1196;-38
2022/04/26 04:53:58;;;;;;;;;;;21.60;39.40;;;;;;482815;244;1280;-38
2022/04/26 04:56:00;;;;;;;;;;;21.60;39.30;;;;;;482695;244;1348;-39
2022/04/26 04:58:01;;;;;;;;;;;21.60;39.30;;;;;;482879;244;1299;-38
2022/04/26 05:00:02;;;;;;;;;;;21.60;39.30;;;;;;482945;244;2121;-38
2022/04/26 05:02:04;;;;;;;;;;;21.60;39.40;;;;;;482617;244;1334;-38
2022/04/26 05:04:05;;;;;;;;;;;21.60;39.40;;;;;;482624;244;1098;-38
2022/04/26 05:06:06;;;;;;;;;;;21.60;39.30;;;;;;482577;244;1133;-38
2022/04/26 05:08:08;;;;;;;;;;;21.60;39.30;;;;;;482511;244;1123;-38
2022/04/26 05:10:09;;;;;;;;;;;21.60;39.40;;;;;;482921;244;1097;-38
2022/04/26 05:12:10;;;;;;;;;;;21.60;39.40;;;;;;482451;244;1240;-38
2022/04/26 05:14:12;;;;;;;;;;;21.60;39.30;;;;;;482459;244;1215;-39
2022/04/26 05:16:13;;;;;;;;;;;21.60;39.30;;;;;;482517;244;1040;-39
2022/04/26 05:18:14;;;;;;;;;;;21.50;39.40;;;;;;482416;244;1207;-38
2022/04/26 05:20:15;;;;;;;;;;;21.50;39.40;;;;;;482522;244;2138;-38
2022/04/26 05:22:17;;;;;;;;;;;21.60;39.40;;;;;;482316;244;1083;-38
2022/04/26 05:26:37;;;;;;;;;;;21.60;39.40;;;;;;482419;246;1201;-38
2022/04/26 05:28:39;;;;;;;;;;;21.60;39.30;;;;;;482605;244;1212;-38
2022/04/26 05:30:40;;;;;;;;;;;21.60;39.40;;;;;;482493;244;1098;-38
2022/04/26 05:32:42;;;;;;;;;;;21.60;39.40;;;;;;482400;244;1319;-38
2022/04/26 05:34:43;;;;;;;;;;;21.50;39.30;;;;;;482459;244;1214;-39
2022/04/26 05:36:45;;;;;;;;;;;21.60;39.30;;;;;;482536;244;1324;-39
2022/04/26 05:38:46;;;;;;;;;;;21.60;39.30;;;;;;482498;244;1090;-38
2022/04/26 05:40:47;;;;;;;;;;;21.60;39.40;;;;;;482485;244;2200;-38
2022/04/26 05:42:49;;;;;;;;;;;21.60;39.40;;;;;;482375;244;1304;-38
2022/04/26 05:44:50;;;;;;;;;;;21.60;39.40;;;;;;482522;244;1064;-38
2022/04/26 05:46:51;;;;;;;;;;;21.60;39.40;;;;;;482500;244;1173;-38
2022/04/26 05:48:53;;;;;;;;;;;21.50;39.40;;;;;;482421;244;1043;-38
2022/04/26 05:50:55;;;;;;;;;;;21.60;39.40;;;;;;482373;244;1450;-38
2022/04/26 05:52:55;;;;;;;;;;;21.60;39.40;;;;;;482331;246;2278;-38
2022/04/26 05:54:58;;;;;;;;;;;21.60;39.40;;;;;;482419;244;1115;-39
2022/04/26 05:56:58;;;;;;;;;;;21.60;39.40;;;;;;482189;246;2407;-39
2022/04/26 05:58:59;;;;;;;;;;;21.50;39.40;;;;;;482154;244;1314;-38
2022/04/26 06:01:01;;;;;;;;;;;21.60;39.40;;;;;;482504;244;2113;-38
2022/04/26 06:03:02;;;;;;;;;;;21.60;39.40;;;;;;482218;244;1166;-38
2022/04/26 06:05:03;;;;;;;;;;;21.60;39.40;;;;;;482216;244;1221;-38
2022/04/26 06:07:05;;;;;;;;;;;21.60;39.30;;;;;;482189;244;1232;-38
2022/04/26 06:09:06;;;;;;;;;;;21.60;39.40;;;;;;482282;244;1106;-38
2022/04/26 06:11:08;;;;;;;;;;;21.60;39.50;;;;;;482441;244;1171;-39
2022/04/26 06:13:09;;;;;;;;;;;21.60;39.40;;;;;;482297;244;1241;-38
2022/04/26 06:15:11;;;;;;;;;;;21.60;39.40;;;;;;482261;244;1092;-39
2022/04/26 06:17:12;;;;;;;;;;;21.60;39.40;;;;;;482246;244;1441;-39
2022/04/26 06:19:13;;;;;;;;;;;21.60;39.30;;;;;;482226;244;1130;-38
2022/04/26 06:21:15;;;;;;;;;;;21.60;39.40;;;;;;482081;244;2188;-39
2022/04/26 06:23:16;;;;;;;;;;;21.60;39.40;;;;;;482264;245;1054;-39
2022/04/26 06:25:17;;;;;;;;;;;21.60;39.40;;;;;;482345;244;1079;-38
2022/04/26 06:27:19;;;;;;;;;;;21.50;39.50;;;;;;482236;244;1122;-38
2022/04/26 06:29:20;;;;;;;;;;;21.60;39.50;;;;;;482370;244;1167;-38
2022/04/26 06:31:21;;;;;;;;;;;21.60;39.50;;;;;;482261;244;1047;-38
2022/04/26 06:33:23;;;;;;;;;;;21.50;39.50;;;;;;482170;244;1206;-39
2022/04/26 06:35:25;;;;;;;;;;;21.60;39.50;;;;;;482234;244;1211;-39
2022/04/26 06:37:25;;;;;;;;;;;21.60;39.60;;;;;;482182;246;1715;-38
2022/04/26 06:39:27;;;;;;;;;;;21.70;39.50;;;;;;482195;244;1090;-39
2022/04/26 06:41:29;;;;;;;;;;;21.60;39.50;;;;;;482142;244;2126;-38
2022/04/26 06:43:32;;;;;;;;;;;21.60;39.50;;;;;;482284;244;1261;-38
2022/04/26 06:45:31;;;;;;;;;;;21.60;39.50;;;;;;483096;245;2188;-39
2022/04/26 06:47:32;;;;;;;;;;;21.60;39.50;;;;;;482497;244;1170;-39
2022/04/26 06:49:34;;;;;;;;;;;21.60;39.50;;;;;;482417;245;1118;-38
2022/04/26 06:51:40;;;;;;;;;;;21.60;39.60;;;;;;482401;244;1319;-39
2022/04/26 06:53:37;;;;;;;;;;;21.60;39.50;;;;;;482121;246;2323;-39
2022/04/26 06:55:38;;;;;;;;;;;21.60;39.60;;;;;;482261;245;1214;-39
2022/04/26 06:57:40;;;;;;;;;;;21.60;39.70;;;;;;482336;244;1192;-38
2022/04/26 06:59:41;;;;;;;;;;;21.60;39.70;;;;;;482419;246;2076;-38
2022/04/26 07:01:42;;;;;;;;;;;21.60;39.60;;;;;;482282;244;2114;-39
2022/04/26 07:03:43;;;;;;;;;;;21.60;39.60;;;;;;482124;244;1280;-39
2022/04/26 07:05:45;;;;;;;;;;;21.60;39.70;;;;;;482233;244;1082;-39
2022/04/26 07:07:46;;;;;;;;;;;21.50;39.70;;;;;;482194;244;1327;-39
2022/04/26 07:09:47;;;;;;;;;;;21.60;39.70;;;;;;482407;244;1125;-39
2022/04/26 07:11:49;;;;;;;;;;;21.60;39.60;;;;;;482281;244;1344;-39
2022/04/26 07:13:52;;;;;;;;;;;21.60;39.70;;;;;;482383;244;1181;-39
2022/04/26 07:15:51;;;;;;;;;;;21.60;39.70;;;;;;482168;246;2319;-39
2022/04/26 07:17:53;;;;;;;;;;;21.60;39.70;;;;;;482233;244;1236;-39
2022/04/26 07:19:54;;;;;;;;;;;21.60;39.60;;;;;;482161;244;1213;-39
2022/04/26 07:21:55;;;;;;;;;;;21.60;39.60;;;;;;482140;244;2128;-39
2022/04/26 07:23:56;;;;;;;;;;;21.60;39.60;;;;;;482253;244;1288;-39
2022/04/26 07:25:59;;;;;;;;;;;21.60;39.60;;;;;;482141;246;1150;-39
2022/04/26 07:27:59;;;;;;;;;;;21.60;39.70;;;;;;482733;246;2386;-39
2022/04/26 07:30:01;;;;;;;;;;;21.60;39.60;;;;;;482209;244;1501;-39
2022/04/26 07:32:02;;;;;;;;;;;21.60;39.60;;;;;;482203;244;1101;-39
2022/04/26 07:34:22;;;;;;;;;;;21.60;39.60;;;;;;482252;244;1084;-39
2022/04/26 07:36:23;;;;;;;;;;;21.60;39.70;;;;;;482093;244;1223;-39
2022/04/26 07:38:25;;;;;;;;;;;21.60;39.70;;;;;;482453;244;1120;-39
2022/04/26 07:40:26;;;;;;;;;;;21.60;39.70;;;;;;482427;244;2192;-39
2022/04/26 07:42:27;;;;;;;;;;;21.60;39.70;;;;;;482276;245;1527;-38
2022/04/26 07:44:29;;;;;;;;;;;21.60;39.70;;;;;;482375;244;1242;-39
2022/04/26 07:46:30;;;;;;;;;;;21.60;39.70;;;;;;482449;244;1098;-39
2022/04/26 07:48:32;;;;;;;;;;;21.50;39.70;;;;;;482013;245;1616;-39
2022/04/26 07:50:33;;;;;;;;;;;21.60;39.70;;;;;;482341;244;1094;-39
2022/04/26 07:52:34;;;;;;;;;;;21.60;39.70;;;;;;482193;244;1318;-39
2022/04/26 07:54:36;;;;;;;;;;;21.60;39.70;;;;;;482331;245;1166;-39
2022/04/26 07:56:37;;;;;;;;;;;21.60;39.80;;;;;;482331;244;1313;-39
2022/04/26 07:58:38;;;;;;;;;;;21.50;39.80;;;;;;482073;245;1413;-39
2022/04/26 08:00:40;;;;;;;;;;;21.50;39.70;;;;;;481775;244;2249;-39
2022/04/26 08:02:41;;;;;;;;;;;21.60;39.70;;;;;;482131;244;1302;-39
2022/04/26 08:04:42;;;;;;;;;;;21.60;39.70;;;;;;482216;244;1134;-39
2022/04/26 08:06:44;;;;;;;;;;;21.60;39.60;;;;;;482133;244;1241;-39
2022/04/26 08:08:45;;;;;;;;;;;21.60;39.60;;;;;;482314;246;1154;-39
2022/04/26 08:10:46;;;;;;;;;;;21.60;39.60;;;;;;482356;244;1196;-39
2022/04/26 08:12:47;;;;;;;;;;;21.70;39.70;;;;;;482400;245;1146;-39
2022/04/26 08:14:49;;;;;;;;;;;21.60;39.60;;;;;;481235;244;1330;-39
2022/04/26 08:16:50;;;;;;;;;;;21.60;39.60;;;;;;479683;248;1254;-39
2022/04/26 08:18:51;;;;;;;;;;;21.60;39.70;;;;;;464669;254;1135;-39
2022/04/26 08:20:53;;;;;;;;;;;21.60;39.60;;;;;;469936;252;2187;-39
2022/04/26 08:22:54;;;;;;;;;;;21.60;39.70;;;;;;464679;253;1212;-39
2022/04/26 08:27:25;;;;;;;;;;;21.50;39.70;;;;;;466710;254;1135;-39
2022/04/26 08:29:25;;;;;;;;;;;21.60;39.70;;;;;;466646;253;2253;-39
2022/04/26 08:31:28;;;;;;;;;;;21.50;39.70;;;;;;466713;254;1177;-39
2022/04/26 08:33:28;;;;;;;;;;;21.60;39.70;;;;;;466902;254;2454;-39
2022/04/26 08:35:29;;;;;;;;;;;21.60;39.60;;;;;;466741;253;1223;-39
2022/04/26 08:37:31;;;;;;;;;;;21.60;39.70;;;;;;466753;253;1097;-39
2022/04/26 08:39:32;;;;;;;;;;;21.70;39.70;;;;;;466497;254;1158;-39
2022/04/26 08:41:34;;;;;;;;;;;21.60;39.60;;;;;;466409;253;2142;-39
2022/04/26 08:43:35;;;;;;;;;;;21.60;39.60;;;;;;466636;253;1108;-39
2022/04/26 08:45:38;;;;;;;;;;;21.60;39.60;;;;;;466630;254;1154;-39
2022/04/26 08:52:16;;;;;;;;;;;21.60;39.80;;;;;;466662;254;1168;-39
2022/04/26 08:54:18;;;;;;;;;;;21.60;39.70;;;;;;466741;254;1117;-39
2022/04/26 08:56:20;;;;;;;;;;;21.50;39.70;;;;;;466785;254;1214;-39
2022/04/26 08:58:21;;;;;;;;;;;21.50;39.80;;;;;;466592;255;2221;-39
2022/04/26 09:00:22;;;;;;;;;;;21.50;39.70;;;;;;466435;255;2185;-39
2022/04/26 09:02:23;;;;;;;;;;;21.60;39.80;;;;;;466585;253;2118;-39
2022/04/26 09:04:24;;;;;;;;;;;21.50;39.80;;;;;;466892;253;1193;-39
2022/04/26 09:06:26;;;;;;;;;;;21.60;39.80;;;;;;466730;253;1323;-39
2022/04/26 09:08:27;;;;;;;;;;;21.60;39.70;;;;;;466763;254;1394;-39
2022/04/26 09:10:29;;;;;;;;;;;21.60;39.60;;;;;;466773;254;1171;-39
2022/04/26 09:12:30;;;;;;;;;;;21.60;39.60;;;;;;466765;253;1259;-39
2022/04/26 09:14:32;;;;;;;;;;;21.60;39.60;;;;;;466777;253;1461;-39
2022/04/26 09:16:33;;;;;;;;;;;21.60;39.60;;;;;;466803;254;2425;-39
2022/04/26 09:18:34;;;;;;;;;;;21.60;39.60;;;;;;466563;254;1157;-39
2022/04/26 09:20:35;;;;;;;;;;;21.60;39.70;;;;;;466614;253;1341;-39
2022/04/26 09:22:38;;;;;;;;;;;21.60;39.60;;;;;;466507;253;2142;-39
2022/04/26 09:24:39;;;;;;;;;;;21.60;39.60;;;;;;466455;253;1293;-39
2022/04/26 09:26:40;;;;;;;;;;;21.60;39.60;;;;;;466551;253;1335;-39
2022/04/26 09:28:41;;;;;;;;;;;21.60;39.70;;;;;;466623;253;1090;-39
2022/04/26 09:30:43;;;;;;;;;;;21.60;39.70;;;;;;466620;253;1220;-39
2022/04/26 09:32:44;;;;;;;;;;;21.50;39.70;;;;;;466682;253;1389;-39
2022/04/26 09:34:46;;;;;;;;;;;21.60;39.70;;;;;;466720;254;1132;-39
2022/04/26 09:36:48;;;;;;;;;;;21.60;39.70;;;;;;466708;253;1251;-39
2022/04/26 09:38:48;;;;;;;;;;;21.50;39.60;;;;;;466538;254;2421;-39
2022/04/26 09:40:49;;;;;;;;;;;21.50;39.70;;;;;;466572;253;1121;-39
2022/04/26 09:42:51;;;;;;;;;;;21.50;39.60;;;;;;466618;253;2220;-39
2022/04/26 09:44:52;;;;;;;;;;;21.50;39.70;;;;;;466795;254;2327;-39
2022/04/26 09:46:53;;;;;;;;;;;21.60;39.70;;;;;;466848;253;1229;-39
2022/04/26 09:48:55;;;;;;;;;;;21.60;39.60;;;;;;466787;253;1321;-39
2022/04/26 09:50:57;;;;;;;;;;;21.60;39.60;;;;;;466833;253;1165;-39
2022/04/26 09:52:58;;;;;;;;;;;21.60;39.60;;;;;;466833;253;1366;-39
2022/04/26 09:55:00;;;;;;;;;;;21.60;39.70;;;;;;466850;253;1284;-39
2022/04/26 09:57:01;;;;;;;;;;;21.50;39.70;;;;;;466773;254;2297;-39
2022/04/26 09:59:02;;;;;;;;;;;21.60;39.70;;;;;;466774;254;1312;-39
2022/04/26 10:01:04;;;;;;;;;;;21.60;39.60;;;;;;466695;253;1215;-39
2022/04/26 10:03:06;;;;;;;;;;;21.60;39.70;;;;;;466676;253;2197;-39
2022/04/26 10:05:07;;;;;;;;;;;21.60;39.70;;;;;;466451;253;1937;-39
2022/04/26 10:07:08;;;;;;;;;;;21.60;39.60;;;;;;466463;253;1217;-39
2022/04/26 10:09:10;;;;;;;;;;;21.60;39.60;;;;;;466572;254;1112;-39
2022/04/26 10:11:11;;;;;;;;;;;21.60;39.60;;;;;;466588;254;1486;-39
2022/04/26 10:15:32;;;;;;;;;;;21.60;39.60;;;;;;466619;253;1358;-39
2022/04/26 10:17:33;;;;;;;;;;;21.60;39.70;;;;;;466584;253;1232;-39
2022/04/26 10:19:34;;;;;;;;;;;21.60;39.60;;;;;;466887;253;1118;-39
2022/04/26 10:21:38;;;;;;;;;;;21.60;39.70;;;;;;466862;253;2189;-39
2022/04/26 10:23:37;;;;;;;;;;;21.50;39.60;;;;;;466444;255;2623;-39
2022/04/26 10:25:38;;;;;;;;;;;21.60;39.60;;;;;;466522;254;1214;-39
2022/04/26 10:27:40;;;;;;;;;;;21.60;39.60;;;;;;466577;254;1118;-39
2022/04/26 10:29:41;;;;;;;;;;;21.60;39.60;;;;;;466615;253;1116;-39
2022/04/26 10:31:43;;;;;;;;;;;21.60;39.70;;;;;;466631;253;1139;-39
2022/04/26 10:33:45;;;;;;;;;;;21.50;39.60;;;;;;466673;254;1374;-39
2022/04/26 10:35:46;;;;;;;;;;;21.60;39.70;;;;;;466633;254;1219;-39
2022/04/26 10:37:48;;;;;;;;;;;21.60;39.60;;;;;;466620;253;1143;-39
2022/04/26 10:39:51;;;;;;;;;;;21.60;39.60;;;;;;466901;253;1192;-39
2022/04/26 10:41:51;;;;;;;;;;;21.50;39.60;;;;;;466631;254;2220;-39
2022/04/26 10:43:52;;;;;;;;;;;21.50;39.70;;;;;;466686;254;1203;-39
2022/04/26 10:45:53;;;;;;;;;;;21.60;39.80;;;;;;466656;253;1327;-39
2022/04/26 10:47:54;;;;;;;;;;;21.50;39.70;;;;;;466692;254;1113;-39
2022/04/26 10:49:58;;;;;;;;;;;21.60;39.70;;;;;;466745;254;1330;-39
2022/04/26 10:51:57;;;;;;;;;;;21.60;39.80;;;;;;466634;254;2186;-39
2022/04/26 10:53:59;;;;;;;;;;;21.60;39.70;;;;;;466148;255;1184;-39
2022/04/26 10:56:00;;;;;;;;;;;21.60;39.80;;;;;;466413;253;1113;-39
2022/04/26 10:58:02;;;;;;;;;;;21.50;39.70;;;;;;466479;254;1236;-39
2022/04/26 11:00:03;;;;;;;;;;;21.60;39.80;;;;;;466477;253;1546;-39
2022/04/26 11:02:05;;;;;;;;;;;21.60;39.80;;;;;;466513;253;2153;-39
2022/04/26 11:04:06;;;;;;;;;;;21.60;39.80;;;;;;466910;254;2193;-39
2022/04/26 11:06:07;;;;;;;;;;;21.50;39.80;;;;;;466918;254;1165;-39
2022/04/26 11:08:09;;;;;;;;;;;21.50;39.80;;;;;;467354;253;1332;-39
2022/04/26 11:10:10;;;;;;;;;;;21.50;39.80;;;;;;466600;253;2374;-39
2022/04/26 11:12:11;;;;;;;;;;;21.60;39.80;;;;;;466540;253;1289;-39
2022/04/26 11:14:12;;;;;;;;;;;21.60;39.70;;;;;;466731;253;1106;-39
2022/04/26 11:16:14;;;;;;;;;;;21.60;39.80;;;;;;466653;253;1365;-39
2022/04/26 11:18:15;;;;;;;;;;;21.60;39.80;;;;;;466759;253;1631;-39
2022/04/26 11:20:17;;;;;;;;;;;21.60;39.80;;;;;;466732;253;1134;-39
2022/04/26 11:22:18;;;;;;;;;;;21.50;39.80;;;;;;466583;254;2205;-39
2022/04/26 11:28:58;;;;;;;;;;;21.60;39.80;;;;;;466744;254;1100;-39
2022/04/26 11:31:00;;;;;;;;;;;21.60;39.80;;;;;;466619;254;1340;-39
2022/04/26 11:33:02;;;;;;;;;;;21.60;39.90;;;;;;466596;253;1227;-39
2022/04/26 11:35:03;;;;;;;;;;;21.60;39.90;;;;;;466628;254;1155;-39
2022/04/26 11:37:04;;;;;;;;;;;21.60;39.90;;;;;;466593;253;1242;-39
2022/04/26 11:39:05;;;;;;;;;;;21.60;39.90;;;;;;466638;253;1339;-39
2022/04/26 11:41:08;;;;;;;;;;;21.60;39.90;;;;;;466631;253;1120;-39
2022/04/26 11:43:08;;;;;;;;;;;21.50;39.90;;;;;;466488;255;2137;-39
2022/04/26 11:45:09;;;;;;;;;;;21.60;39.90;;;;;;466538;253;1118;-39
2022/04/26 11:47:13;;;;;;;;;;;21.60;39.90;;;;;;466456;254;1297;-39
2022/04/26 11:49:13;;;;;;;;;;;21.60;39.90;;;;;;466680;255;2440;-39
2022/04/26 11:51:14;;;;;;;;;;;21.60;39.90;;;;;;466642;253;1292;-39
2022/04/26 11:53:15;;;;;;;;;;;21.60;39.80;;;;;;466786;254;1199;-39
2022/04/26 11:55:16;;;;;;;;;;;21.60;39.90;;;;;;466711;254;1138;-40
2022/04/26 11:57:18;;;;;;;;;;;21.60;39.90;;;;;;466704;253;1329;-39
2022/04/26 11:59:19;;;;;;;;;;;21.60;39.80;;;;;;466688;253;1415;-39
2022/04/26 12:01:21;;;;;;;;;;;21.60;39.80;;;;;;466181;254;1218;-39
2022/04/26 12:03:22;;;;;;;;;;;21.60;39.80;;;;;;466260;253;2435;-39
2022/04/26 12:05:23;;;;;;;;;;;21.60;39.80;;;;;;466426;254;1209;-39
2022/04/26 12:07:24;;;;;;;;;;;21.60;39.90;;;;;;466729;254;1321;-39
2022/04/26 12:09:26;;;;;;;;;;;21.60;40.00;;;;;;467204;253;1098;-39
2022/04/26 12:11:27;;;;;;;;;;;21.60;40.00;;;;;;466594;253;2132;-39
2022/04/26 12:13:30;;;;;;;;;;;21.60;40.00;;;;;;466629;253;1254;-39
2022/04/26 12:15:31;;;;;;;;;;;21.50;40.00;;;;;;466879;255;2311;-39
2022/04/26 12:17:32;;;;;;;;;;;21.50;39.90;;;;;;467332;253;1128;-36
2022/04/26 12:19:33;;;;;;;;;;;21.50;40.00;;;;;;466728;253;1121;-39
2022/04/26 12:21:34;;;;;;;;;;;21.50;39.90;;;;;;466635;254;1373;-39
2022/04/26 12:23:36;;;;;;;;;;;21.50;39.90;;;;;;466666;253;2201;-39
2022/04/26 12:25:37;;;;;;;;;;;21.50;40.00;;;;;;466414;253;1262;-39
2022/04/26 12:27:38;;;;;;;;;;;21.50;39.90;;;;;;466408;253;1479;-39
2022/04/26 12:29:40;;;;;;;;;;;21.60;40.00;;;;;;466599;255;1258;-39
2022/04/26 12:31:41;;;;;;;;;;;21.60;39.90;;;;;;466649;253;1235;-39
2022/04/26 12:33:43;;;;;;;;;;;21.60;39.90;;;;;;466748;253;1128;-39
2022/04/26 12:35:45;;;;;;;;;;;21.60;39.90;;;;;;483042;245;1144;-39
2022/04/26 12:37:46;;;;;;;;;;;21.60;39.90;;;;;;482134;244;2471;-39
2022/04/26 12:39:48;;;;;;;;;;;21.60;39.90;;;;;;482293;244;1100;-39
2022/04/26 12:41:48;;;;;;;;;;;21.50;39.90;;;;;;482474;245;2179;-39
2022/04/26 12:43:50;;;;;;;;;;;21.50;39.90;;;;;;482148;244;2196;-39
2022/04/26 12:45:51;;;;;;;;;;;21.60;39.90;;;;;;481983;244;1335;-39
2022/04/26 12:50:31;;;;;;;;;;;21.60;39.80;;;;;;482161;246;1062;-39
2022/04/26 12:52:32;;;;;;;;;;;21.60;39.80;;;;;;482162;244;1220;-39
2022/04/26 12:54:34;;;;;;;;;;;21.60;39.90;;;;;;482184;244;1198;-39
2022/04/26 12:56:35;;;;;;;;;;;21.60;39.80;;;;;;481988;245;1361;-39
2022/04/26 12:58:36;;;;;;;;;;;21.60;39.80;;;;;;482256;244;1128;-39
2022/04/26 13:00:39;;;;;;;;;;;21.60;39.80;;;;;;482355;244;1187;-39
2022/04/26 13:02:39;;;;;;;;;;;21.50;39.80;;;;;;482980;244;2175;-39
2022/04/26 13:04:41;;;;;;;;;;;21.50;39.90;;;;;;482281;244;1212;-39
2022/04/26 13:06:42;;;;;;;;;;;21.60;39.80;;;;;;482285;244;1150;-39
2022/04/26 13:08:43;;;;;;;;;;;21.60;39.80;;;;;;482383;244;1164;-39
2022/04/26 13:10:45;;;;;;;;;;;21.50;39.80;;;;;;482347;244;1110;-39
2022/04/26 13:12:46;;;;;;;;;;;21.60;39.80;;;;;;482392;246;1217;-39
2022/04/26 13:14:48;;;;;;;;;;;21.60;39.90;;;;;;482409;244;1228;-39
2022/04/26 13:16:49;;;;;;;;;;;21.60;39.80;;;;;;482343;244;1233;-39
2022/04/26 13:18:51;;;;;;;;;;;21.60;39.80;;;;;;482296;246;1220;-39
2022/04/26 13:20:54;;;;;;;;;;;21.50;39.80;;;;;;482134;244;1150;-39
2022/04/26 13:22:54;;;;;;;;;;;21.50;39.80;;;;;;482454;246;2134;-39
2022/04/26 13:24:56;;;;;;;;;;;21.60;39.80;;;;;;482219;244;1227;-39
2022/04/26 13:26:57;;;;;;;;;;;21.50;39.80;;;;;;482106;246;1322;-39
2022/04/26 13:28:58;;;;;;;;;;;21.50;39.90;;;;;;482383;245;1104;-39
2022/04/26 13:30:59;;;;;;;;;;;21.50;39.80;;;;;;482429;244;1192;-39
2022/04/26 13:33:01;;;;;;;;;;;21.50;39.80;;;;;;482442;244;1105;-39
2022/04/26 13:35:03;;;;;;;;;;;21.50;39.90;;;;;;482398;244;1164;-39
2022/04/26 13:37:07;;;;;;;;;;;21.50;39.90;;;;;;482222;246;1850;-39
2022/04/26 13:39:05;;;;;;;;;;;21.50;39.90;;;;;;482220;246;2536;-39
2022/04/26 13:41:07;;;;;;;;;;;21.60;39.80;;;;;;482328;245;1344;-39
2022/04/26 13:43:08;;;;;;;;;;;21.50;39.80;;;;;;482426;244;2196;-39
2022/04/26 13:45:09;;;;;;;;;;;21.50;39.80;;;;;;482325;245;1054;-39
2022/04/26 13:47:10;;;;;;;;;;;21.60;39.80;;;;;;482178;244;1136;-39
2022/04/26 13:49:12;;;;;;;;;;;21.60;39.80;;;;;;482391;245;1249;-39
2022/04/26 13:51:13;;;;;;;;;;;21.60;39.70;;;;;;482383;244;1224;-39
2022/04/26 13:53:14;;;;;;;;;;;21.60;39.80;;;;;;482442;244;1193;-39
2022/04/26 13:55:17;;;;;;;;;;;21.60;39.80;;;;;;482518;244;1109;-39
2022/04/26 13:57:18;;;;;;;;;;;21.60;39.70;;;;;;482458;244;2051;-39
2022/04/26 13:59:19;;;;;;;;;;;21.60;39.80;;;;;;482423;244;1082;-39
2022/04/26 14:01:22;;;;;;;;;;;21.60;39.70;;;;;;482264;244;1192;-39
2022/04/26 14:03:22;;;;;;;;;;;21.50;39.70;;;;;;482189;246;2483;-39
2022/04/26 14:05:24;;;;;;;;;;;21.50;39.80;;;;;;482279;244;1216;-39
2022/04/26 14:07:25;;;;;;;;;;;21.60;39.80;;;;;;482501;246;2342;-39
2022/04/26 14:09:26;;;;;;;;;;;21.50;39.70;;;;;;482207;244;1285;-39
2022/04/26 14:11:27;;;;;;;;;;;21.60;39.70;;;;;;482182;244;1423;-39
2022/04/26 14:21:46;;;;;;;;;;;21.50;39.80;;;;;;482282;244;1139;-39
2022/04/26 14:22:32;;;;;;;;;;;21.60;39.70;;;;;;482346;246;1213;-39
2022/04/26 14:24:30;;;;;;;;;;;21.60;39.70;;;;;;482322;246;2113;-39
2022/04/26 14:26:31;;;;;;;;;;;21.50;39.80;;;;;;482293;244;1370;-39
2022/04/26 14:28:32;;;;;;;;;;;21.50;39.70;;;;;;482320;246;1248;-39
2022/04/26 14:30:34;;;;;;;;;;;21.50;39.70;;;;;;482420;246;1104;-39
2022/04/26 14:32:35;;;;;;;;;;;21.50;39.70;;;;;;482443;244;1274;-39
2022/04/26 14:34:38;;;;;;;;;;;21.60;39.70;;;;;;482263;245;1201;-39
2022/04/26 14:36:38;;;;;;;;;;;21.50;39.80;;;;;;482935;246;1417;-39
2022/04/26 14:38:39;;;;;;;;;;;21.60;39.80;;;;;;482294;244;1112;-39
2022/04/26 14:40:40;;;;;;;;;;;21.60;39.70;;;;;;482241;244;1120;-39
2022/04/26 14:42:45;;;;;;;;;;;21.50;39.60;;;;;;482125;244;1283;-39
2022/04/26 14:44:43;;;;;;;;;;;21.50;39.80;;;;;;482259;246;2327;-39
2022/04/26 14:46:45;;;;;;;;;;;21.60;39.80;;;;;;482479;244;1136;-39
2022/04/26 14:48:47;;;;;;;;;;;21.50;39.70;;;;;;482471;244;1363;-39
2022/04/26 14:50:48;;;;;;;;;;;21.60;39.80;;;;;;482411;244;1310;-39
2022/04/26 14:52:51;;;;;;;;;;;21.60;39.70;;;;;;482396;245;1251;-39
2022/04/26 14:54:50;;;;;;;;;;;21.60;39.70;;;;;;482290;246;2281;-39
2022/04/26 14:56:52;;;;;;;;;;;21.50;39.70;;;;;;482379;244;1394;-39
2022/04/26 14:58:53;;;;;;;;;;;21.50;39.70;;;;;;482425;244;1160;-39
2022/04/26 15:00:54;;;;;;;;;;;21.50;39.70;;;;;;482458;245;1347;-39
2022/04/26 15:02:56;;;;;;;;;;;21.50;39.70;;;;;;482523;244;2196;-39
2022/04/26 15:04:57;;;;;;;;;;;21.50;39.70;;;;;;482493;245;1516;-39
2022/04/26 15:06:58;;;;;;;;;;;21.60;39.70;;;;;;482406;244;1319;-39
2022/04/26 15:11:19;;;;;;;;;;;21.50;39.70;;;;;;482464;246;1093;-39
2022/04/26 15:18:18;;;;;;;;;;;21.50;39.70;;;;;;460683;256;1186;-39
2022/04/26 15:20:19;;;;;;;;;;;21.50;39.70;;;;;;466011;247;1232;-39
2022/04/26 15:22:20;;;;;;;;;;;21.50;39.80;;;;;;480756;245;1406;-39
2022/04/26 15:24:22;;;;;;;;;;;21.50;39.70;;;;;;480732;245;2130;-39
2022/04/26 15:26:24;;;;;;;;;;;21.50;39.60;;;;;;480899;245;1117;-39
2022/04/26 15:28:25;;;;;;;;;;;21.50;39.60;;;;;;481605;247;2181;-39
2022/04/26 15:30:26;;;;;;;;;;;21.60;39.60;;;;;;482341;244;1210;-39
2022/04/26 15:32:27;;;;;;;;;;;21.50;39.60;;;;;;482270;244;1368;-39
2022/04/26 15:34:29;;;;;;;;;;;21.50;39.60;;;;;;482563;244;1088;-39
2022/04/26 15:36:30;;;;;;;;;;;21.50;39.60;;;;;;482526;245;1103;-39
2022/04/26 15:38:33;;;;;;;;;;;21.50;39.70;;;;;;482532;245;1320;-39
2022/04/26 15:40:34;;;;;;;;;;;21.60;39.60;;;;;;482605;245;2312;-39
2022/04/26 15:42:34;;;;;;;;;;;21.60;39.60;;;;;;482624;245;2239;-39
2022/04/26 15:44:36;;;;;;;;;;;21.60;39.60;;;;;;483567;246;2204;-39
2022/04/26 15:46:37;;;;;;;;;;;21.50;39.70;;;;;;483735;244;1083;-39
2022/04/26 15:48:42;;;;;;;;;;;21.60;39.70;;;;;;483702;244;1161;-39
2022/04/26 15:50:41;;;;;;;;;;;21.50;39.60;;;;;;482926;246;2383;-39
2022/04/26 15:52:41;;;;;;;;;;;21.60;39.70;;;;;;482598;245;2757;-39
2022/04/26 15:54:43;;;;;;;;;;;21.60;39.60;;;;;;482849;244;1078;-39
2022/04/26 15:56:44;;;;;;;;;;;21.50;39.50;;;;;;482710;244;1170;-39
2022/04/26 15:58:46;;;;;;;;;;;21.60;39.60;;;;;;482585;244;1115;-39
2022/04/26 16:00:47;;;;;;;;;;;21.50;39.60;;;;;;482775;246;1141;-39
2022/04/26 16:02:48;;;;;;;;;;;21.60;39.60;;;;;;482857;244;1068;-39
2022/04/26 16:04:50;;;;;;;;;;;21.60;39.60;;;;;;482616;244;2200;-39
2022/04/26 16:06:51;;;;;;;;;;;21.60;39.50;;;;;;482488;244;1203;-39